CYQF

Red Deer Regional Airport

Red Deer, Alberta, Canada
METAR CYQF 161000Z 24006KT 15SM SKC M07/M13 A2989 RMK SLP164
Observed Flight Rules
Dec-16 @ 10:00 UTC (an hour ago) Visual Flight Rules
Wind Visibility Clouds
240° at 6 knots 15 miles
  • Clear skies
Temperatures Readings
Current -7°C / 19°F
Dewpoint -13°C / 9°F
Humidity 63%
Altimeter 29.89" Hg
Pressure 1016.4 hPa
Elevation 905
METAR CYQF 161000Z 24006KT 15SM SKC M07/M13 A2989 RMK SLP164
Observed Flight Rules
Dec-16 @ 10:00 UTC
(an hour ago)
VFR
Wind Visibility
240° at 6 knots 15 miles
Clouds
  • Clear skies
Temperature Dewpoint
-7°C / 19°F -13°C / 9°F
Humidity Altimeter Pressure
63% 29.89" Hg 1016.4 hPa